Time;durP1;ratioP1;P1;durP2;ratioP2;P2;SDS_P1;SDS_P2;PMS_P1;PMS_P2;Temp;Humidity;BMP_temperature;BMP_pressure;BME280_temperature;BME280_humidity;BME280_pressure;Samples;Min_cycle;Max_cycle;Signal;HPM_P1;HPM_P2
2020/12/25 00:01:37;;;;;;;23.00;16.83;;;;;;;;;;6272472;28;20555;-75
2020/12/25 00:04:39;;;;;;;23.45;17.27;;;;;;;;;;6250163;28;20046;-75
2020/12/25 00:07:40;;;;;;;23.67;16.27;;;;;;;;;;6254234;28;20041;-75
2020/12/25 00:10:41;;;;;;;21.52;17.42;;;;;;;;;;6251665;28;20439;-77
2020/12/25 00:13:45;;;;;;;23.23;17.25;;;;;;;;;;6256153;28;20070;-75
2020/12/25 00:16:46;;;;;;;23.43;18.17;;;;;;;;;;6248432;28;20082;-75
2020/12/25 00:19:48;;;;;;;26.02;19.55;;;;;;;;;;6255012;28;20467;-75
2020/12/25 00:22:49;;;;;;;25.05;18.98;;;;;;;;;;6253048;28;20057;-76
2020/12/25 00:25:50;;;;;;;26.83;19.88;;;;;;;;;;6253550;28;20087;-75
2020/12/25 00:28:51;;;;;;;23.52;18.02;;;;;;;;;;6249677;28;20041;-75
2020/12/25 00:31:52;;;;;;;26.88;19.13;;;;;;;;;;6249823;28;20083;-76
2020/12/25 00:34:54;;;;;;;24.13;18.02;;;;;;;;;;6253102;28;20136;-75
2020/12/25 00:37:58;;;;;;;24.83;18.85;;;;;;;;;;6248540;28;20135;-75
2020/12/25 00:40:59;;;;;;;27.50;19.30;;;;;;;;;;6252430;28;20530;-75
2020/12/25 00:44:00;;;;;;;22.58;17.67;;;;;;;;;;6249077;28;20093;-75
2020/12/25 00:47:02;;;;;;;25.70;18.95;;;;;;;;;;6247317;28;20053;-75
2020/12/25 00:50:04;;;;;;;25.20;18.67;;;;;;;;;;6258517;28;20136;-76
2020/12/25 00:53:05;;;;;;;23.33;18.10;;;;;;;;;;6253839;28;20576;-75
2020/12/25 00:56:06;;;;;;;23.80;17.42;;;;;;;;;;6253139;28;20036;-75
2020/12/25 00:59:07;;;;;;;21.88;17.27;;;;;;;;;;6250581;28;20045;-74
2020/12/25 01:02:08;;;;;;;24.58;17.63;;;;;;;;;;6253174;28;20037;-75
2020/12/25 01:05:10;;;;;;;21.88;17.95;;;;;;;;;;6250794;28;20091;-75
2020/12/25 01:08:11;;;;;;;23.95;18.02;;;;;;;;;;6251426;28;20061;-75
2020/12/25 01:11:12;;;;;;;21.83;17.35;;;;;;;;;;6262134;28;20066;-74
2020/12/25 01:14:13;;;;;;;24.00;17.77;;;;;;;;;;6263969;28;20102;-75
2020/12/25 01:17:15;;;;;;;22.35;17.20;;;;;;;;;;6261869;28;20052;-74
2020/12/25 01:20:17;;;;;;;21.85;16.67;;;;;;;;;;6250478;28;20060;-75
2020/12/25 01:23:18;;;;;;;22.70;17.23;;;;;;;;;;6252728;28;20053;-76
2020/12/25 01:26:19;;;;;;;22.50;16.58;;;;;;;;;;6251744;28;20061;-75
2020/12/25 01:29:20;;;;;;;21.35;16.10;;;;;;;;;;6245911;28;20069;-75
2020/12/25 01:32:21;;;;;;;20.58;16.20;;;;;;;;;;6253689;28;20041;-74
2020/12/25 01:35:23;;;;;;;20.95;16.50;;;;;;;;;;6256324;28;20051;-75
2020/12/25 01:38:24;;;;;;;20.27;16.20;;;;;;;;;;6261620;28;20044;-75
2020/12/25 01:41:25;;;;;;;21.23;16.55;;;;;;;;;;6261429;28;20053;-74
2020/12/25 01:44:26;;;;;;;18.33;14.55;;;;;;;;;;6255136;28;20079;-75
2020/12/25 01:47:27;;;;;;;19.35;15.68;;;;;;;;;;6248573;28;20049;-75
2020/12/25 01:50:30;;;;;;;18.20;14.63;;;;;;;;;;6255573;28;20045;-75
2020/12/25 01:53:32;;;;;;;17.83;15.15;;;;;;;;;;6264387;28;20476;-75
2020/12/25 01:56:33;;;;;;;17.75;14.52;;;;;;;;;;6265459;28;20131;-75
2020/12/25 01:59:34;;;;;;;17.52;14.25;;;;;;;;;;6251958;28;21005;-74
2020/12/25 02:02:35;;;;;;;17.15;14.27;;;;;;;;;;6257188;28;20178;-75
2020/12/25 02:05:37;;;;;;;19.85;14.73;;;;;;;;;;6262992;28;20094;-76
2020/12/25 02:08:38;;;;;;;21.15;16.52;;;;;;;;;;6263064;28;20135;-74
2020/12/25 02:11:39;;;;;;;20.27;15.18;;;;;;;;;;6263700;28;20051;-75
2020/12/25 02:14:40;;;;;;;20.85;16.48;;;;;;;;;;6258060;28;20124;-75
2020/12/25 02:17:45;;;;;;;22.27;17.52;;;;;;;;;;6240418;28;20049;-75
2020/12/25 02:20:47;;;;;;;27.10;17.73;;;;;;;;;;6251213;28;20399;-75
2020/12/25 02:23:49;;;;;;;25.80;18.45;;;;;;;;;;6265188;28;20136;-75
2020/12/25 02:26:50;;;;;;;25.83;19.00;;;;;;;;;;6257044;28;20098;-75
2020/12/25 02:29:51;;;;;;;24.77;18.48;;;;;;;;;;6269952;28;20116;-75
2020/12/25 02:32:52;;;;;;;23.15;17.85;;;;;;;;;;6258948;28;20041;-76
2020/12/25 02:35:53;;;;;;;27.80;19.33;;;;;;;;;;6256990;28;20065;-74
2020/12/25 02:38:54;;;;;;;24.92;18.23;;;;;;;;;;6254922;28;20107;-75
2020/12/25 02:41:55;;;;;;;23.55;18.27;;;;;;;;;;6253909;28;20119;-74
2020/12/25 02:44:56;;;;;;;21.83;16.05;;;;;;;;;;6255905;28;20067;-75
2020/12/25 02:47:57;;;;;;;22.58;17.35;;;;;;;;;;6256230;28;20492;-74
2020/12/25 02:50:59;;;;;;;20.67;16.20;;;;;;;;;;6259432;28;20036;-76
2020/12/25 02:54:00;;;;;;;23.65;17.02;;;;;;;;;;6249528;28;20064;-74
2020/12/25 02:57:01;;;;;;;20.65;16.40;;;;;;;;;;6253320;28;20045;-75
2020/12/25 03:00:04;;;;;;;19.52;16.15;;;;;;;;;;6250587;28;20139;-75
2020/12/25 03:03:05;;;;;;;20.45;15.52;;;;;;;;;;6255697;28;20051;-76
2020/12/25 03:06:06;;;;;;;21.40;16.05;;;;;;;;;;6252916;28;20042;-75
2020/12/25 03:09:08;;;;;;;20.63;16.17;;;;;;;;;;6254207;28;20049;-75
2020/12/25 03:12:09;;;;;;;18.88;15.63;;;;;;;;;;6253900;28;20137;-76
2020/12/25 03:15:10;;;;;;;21.55;15.77;;;;;;;;;;6258294;28;20049;-75
2020/12/25 03:18:11;;;;;;;18.85;15.20;;;;;;;;;;6263382;28;20045;-74
2020/12/25 03:21:12;;;;;;;20.52;16.30;;;;;;;;;;6259881;28;20052;-75
2020/12/25 03:24:14;;;;;;;21.60;16.13;;;;;;;;;;6260296;28;20045;-75
2020/12/25 03:27:15;;;;;;;20.50;15.55;;;;;;;;;;6264697;28;20053;-75
2020/12/25 03:30:16;;;;;;;20.17;15.63;;;;;;;;;;6265596;28;20477;-74
2020/12/25 03:33:17;;;;;;;19.25;14.75;;;;;;;;;;6249797;28;20037;-74
2020/12/25 03:36:18;;;;;;;19.55;15.48;;;;;;;;;;6265334;28;20132;-75
2020/12/25 03:39:20;;;;;;;19.05;14.82;;;;;;;;;;6258166;28;20050;-74
2020/12/25 03:42:21;;;;;;;21.40;14.52;;;;;;;;;;6261902;28;20127;-74
2020/12/25 03:45:22;;;;;;;22.75;15.10;;;;;;;;;;6260144;28;20041;-74
2020/12/25 03:48:23;;;;;;;19.45;14.98;;;;;;;;;;6263645;28;20136;-74
2020/12/25 03:51:24;;;;;;;18.77;14.68;;;;;;;;;;6271301;28;20446;-74
2020/12/25 03:54:26;;;;;;;18.90;14.23;;;;;;;;;;6262409;28;20136;-75
2020/12/25 03:57:27;;;;;;;18.67;14.38;;;;;;;;;;6247578;28;20141;-74
2020/12/25 04:00:28;;;;;;;18.40;14.30;;;;;;;;;;6255347;28;20136;-75
2020/12/25 04:03:29;;;;;;;20.90;14.23;;;;;;;;;;6252717;28;20361;-75
2020/12/25 04:06:30;;;;;;;18.33;14.57;;;;;;;;;;6264057;28;20045;-74
2020/12/25 04:09:32;;;;;;;19.15;13.98;;;;;;;;;;6264948;28;20060;-74
2020/12/25 04:12:33;;;;;;;17.17;14.18;;;;;;;;;;6281427;28;20135;-74
2020/12/25 04:15:34;;;;;;;17.73;13.75;;;;;;;;;;6269325;28;20698;-75
2020/12/25 04:18:35;;;;;;;15.30;12.80;;;;;;;;;;6255083;28;20075;-75
2020/12/25 04:21:36;;;;;;;17.13;12.93;;;;;;;;;;6252228;28;20430;-75
2020/12/25 04:24:38;;;;;;;18.52;13.82;;;;;;;;;;6252502;28;20118;-75
2020/12/25 04:27:39;;;;;;;17.20;13.30;;;;;;;;;;6262822;28;20098;-75
2020/12/25 04:30:40;;;;;;;17.35;13.25;;;;;;;;;;6265900;28;20448;-74
2020/12/25 04:33:41;;;;;;;18.67;13.57;;;;;;;;;;6257587;28;20128;-74
2020/12/25 04:36:42;;;;;;;17.92;13.70;;;;;;;;;;6254024;28;20386;-75
2020/12/25 04:39:44;;;;;;;17.70;14.98;;;;;;;;;;6250362;28;20049;-74
2020/12/25 04:42:50;;;;;;;17.10;13.57;;;;;;;;;;6250741;28;20652;-75
2020/12/25 04:45:51;;;;;;;17.27;13.50;;;;;;;;;;6254001;28;20044;-75
2020/12/25 04:48:52;;;;;;;16.00;12.20;;;;;;;;;;6260648;28;20065;-75
2020/12/25 04:51:53;;;;;;;15.68;12.20;;;;;;;;;;6255757;28;20043;-74
2020/12/25 04:54:55;;;;;;;15.75;12.98;;;;;;;;;;6245544;28;20657;-74
2020/12/25 04:57:57;;;;;;;17.73;13.52;;;;;;;;;;6249078;28;20056;-74
2020/12/25 05:01:02;;;;;;;16.50;13.18;;;;;;;;;;6247596;28;20052;-75
2020/12/25 05:04:03;;;;;;;16.80;12.55;;;;;;;;;;6247959;28;20052;-74
2020/12/25 05:07:05;;;;;;;16.90;12.90;;;;;;;;;;6248818;28;20504;-75
2020/12/25 05:10:07;;;;;;;15.73;12.60;;;;;;;;;;6258520;28;20045;-74
2020/12/25 05:13:08;;;;;;;16.92;12.38;;;;;;;;;;6256991;28;20053;-74
2020/12/25 05:16:09;;;;;;;15.90;11.68;;;;;;;;;;6254382;28;20493;-74
2020/12/25 05:19:11;;;;;;;15.73;10.90;;;;;;;;;;6245588;28;20052;-74
2020/12/25 05:22:17;;;;;;;14.13;11.57;;;;;;;;;;6256804;28;20550;-74
2020/12/25 05:25:19;;;;;;;15.25;11.10;;;;;;;;;;6258136;28;20049;-74
2020/12/25 05:28:21;;;;;;;13.98;11.13;;;;;;;;;;6251163;28;20048;-74
2020/12/25 05:31:22;;;;;;;15.20;10.80;;;;;;;;;;6256381;28;20041;-74
2020/12/25 05:34:23;;;;;;;18.00;10.57;;;;;;;;;;6249391;28;20048;-75
2020/12/25 05:37:33;;;;;;;12.23;10.02;;;;;;;;;;6247357;28;20050;-74
2020/12/25 05:40:41;;;;;;;13.50;10.18;;;;;;;;;;6250962;28;20049;-74
2020/12/25 05:43:46;;;;;;;12.52;9.95;;;;;;;;;;6246718;28;20412;-74
2020/12/25 05:46:48;;;;;;;14.20;10.75;;;;;;;;;;6261734;28;20045;-75
2020/12/25 05:49:50;;;;;;;13.15;11.13;;;;;;;;;;6255897;28;20057;-74
2020/12/25 05:52:52;;;;;;;14.15;11.13;;;;;;;;;;6258845;28;20052;-73
2020/12/25 05:55:54;;;;;;;15.93;11.77;;;;;;;;;;6261660;28;20144;-76
2020/12/25 05:58:56;;;;;;;14.68;11.68;;;;;;;;;;6266114;28;20583;-74
2020/12/25 06:01:58;;;;;;;16.52;11.77;;;;;;;;;;6264159;28;20048;-74
2020/12/25 06:04:59;;;;;;;16.73;12.15;;;;;;;;;;6263381;28;20080;-76
2020/12/25 06:08:00;;;;;;;16.15;12.80;;;;;;;;;;6272009;28;20078;-74
2020/12/25 06:11:03;;;;;;;18.73;12.82;;;;;;;;;;6270393;28;20037;-74
2020/12/25 06:14:04;;;;;;;17.30;13.48;;;;;;;;;;6259120;28;20051;-74
2020/12/25 06:17:08;;;;;;;18.10;13.05;;;;;;;;;;6259052;28;20128;-75
2020/12/25 06:20:11;;;;;;;22.23;14.77;;;;;;;;;;6252178;28;20041;-74
2020/12/25 06:23:13;;;;;;;18.23;13.38;;;;;;;;;;6258328;28;20239;-74
2020/12/25 06:26:18;;;;;;;17.58;12.27;;;;;;;;;;6256781;28;21610;-75
2020/12/25 06:29:20;;;;;;;18.30;13.20;;;;;;;;;;6270428;28;20053;-74
2020/12/25 06:32:23;;;;;;;18.05;13.02;;;;;;;;;;6261037;28;20408;-74
2020/12/25 06:35:31;;;;;;;16.17;12.43;;;;;;;;;;6263452;28;20048;-74
2020/12/25 06:38:42;;;;;;;17.90;13.40;;;;;;;;;;6266185;28;20582;-74
2020/12/25 06:41:44;;;;;;;17.83;13.45;;;;;;;;;;6258954;28;20463;-76
2020/12/25 06:44:48;;;;;;;20.02;13.25;;;;;;;;;;6265191;28;20053;-74
2020/12/25 06:47:49;;;;;;;17.70;12.70;;;;;;;;;;6258982;28;20132;-74
2020/12/25 06:50:52;;;;;;;16.70;12.63;;;;;;;;;;6254788;28;20056;-75
2020/12/25 06:53:56;;;;;;;17.58;12.02;;;;;;;;;;6259384;28;20057;-74
2020/12/25 06:56:59;;;;;;;15.20;11.68;;;;;;;;;;6266846;28;20135;-74
2020/12/25 07:00:04;;;;;;;18.15;12.43;;;;;;;;;;6261455;28;20048;-74
2020/12/25 07:03:10;;;;;;;17.55;12.13;;;;;;;;;;6268488;28;20061;-74
2020/12/25 07:06:12;;;;;;;15.43;11.25;;;;;;;;;;6261120;28;20049;-75
2020/12/25 07:09:13;;;;;;;16.75;11.23;;;;;;;;;;6262439;28;20581;-74
2020/12/25 07:12:16;;;;;;;14.90;11.85;;;;;;;;;;6268563;28;20053;-74
2020/12/25 07:15:17;;;;;;;14.20;12.13;;;;;;;;;;6257298;28;20049;-74
2020/12/25 07:18:18;;;;;;;16.05;12.13;;;;;;;;;;6259862;28;20059;-74
2020/12/25 07:21:19;;;;;;;16.55;12.55;;;;;;;;;;6259695;28;20049;-75
2020/12/25 07:24:21;;;;;;;17.00;13.20;;;;;;;;;;6257929;28;20041;-74
2020/12/25 07:27:23;;;;;;;17.58;12.35;;;;;;;;;;6249508;28;20070;-74
2020/12/25 07:30:24;;;;;;;16.52;12.43;;;;;;;;;;6252502;28;21422;-75
2020/12/25 07:33:25;;;;;;;15.63;12.60;;;;;;;;;;6260235;28;20055;-74
2020/12/25 07:36:26;;;;;;;15.77;12.40;;;;;;;;;;6260775;28;20386;-75
2020/12/25 07:39:29;;;;;;;15.27;12.05;;;;;;;;;;6255958;28;20083;-75
2020/12/25 07:42:31;;;;;;;14.88;11.85;;;;;;;;;;6250538;28;20057;-75
2020/12/25 07:45:35;;;;;;;14.13;11.68;;;;;;;;;;6253973;28;20045;-74
2020/12/25 07:48:36;;;;;;;16.00;11.75;;;;;;;;;;6253110;28;21693;-75
2020/12/25 07:51:37;;;;;;;18.08;12.57;;;;;;;;;;6253081;28;20049;-75
2020/12/25 07:54:38;;;;;;;16.20;12.73;;;;;;;;;;6259870;28;20076;-74
2020/12/25 07:57:42;;;;;;;16.33;12.65;;;;;;;;;;6255424;28;20055;-74
2020/12/25 08:00:43;;;;;;;15.87;12.10;;;;;;;;;;6257979;28;20455;-74
2020/12/25 08:03:44;;;;;;;14.93;11.70;;;;;;;;;;6253287;28;20045;-75
2020/12/25 08:06:45;;;;;;;13.95;11.77;;;;;;;;;;6257840;28;20386;-74
2020/12/25 08:09:47;;;;;;;15.40;11.30;;;;;;;;;;6264075;28;20033;-74
2020/12/25 08:12:50;;;;;;;13.27;10.43;;;;;;;;;;6255387;28;20067;-76
2020/12/25 08:15:52;;;;;;;13.98;10.57;;;;;;;;;;6253238;28;20036;-74
2020/12/25 08:18:53;;;;;;;12.85;10.45;;;;;;;;;;6252927;28;20063;-75
2020/12/25 08:22:02;;;;;;;13.45;10.73;;;;;;;;;;6254858;28;20094;-74
2020/12/25 08:25:04;;;;;;;15.50;11.68;;;;;;;;;;6257892;28;20468;-75
2020/12/25 08:28:06;;;;;;;18.45;13.23;;;;;;;;;;6258865;28;20120;-74
2020/12/25 08:31:14;;;;;;;19.98;15.98;;;;;;;;;;6250210;28;20640;-77
2020/12/25 08:34:21;;;;;;;22.52;17.30;;;;;;;;;;6251309;28;20045;-74
2020/12/25 08:37:22;;;;;;;21.55;17.27;;;;;;;;;;6246354;28;20084;-75
2020/12/25 08:40:24;;;;;;;21.67;16.27;;;;;;;;;;6250876;28;20045;-75
2020/12/25 08:43:26;;;;;;;20.20;15.68;;;;;;;;;;6254099;28;20047;-74
2020/12/25 08:46:27;;;;;;;21.83;16.23;;;;;;;;;;6256125;28;20106;-74
2020/12/25 08:49:28;;;;;;;23.52;15.70;;;;;;;;;;6259546;28;20453;-74
2020/12/25 08:52:29;;;;;;;17.48;14.15;;;;;;;;;;6263943;28;20181;-74
2020/12/25 08:55:30;;;;;;;18.58;13.77;;;;;;;;;;6257020;28;20052;-74
2020/12/25 08:58:32;;;;;;;19.48;13.63;;;;;;;;;;6253095;28;20176;-74
2020/12/25 09:01:34;;;;;;;17.63;12.20;;;;;;;;;;6258165;28;20040;-74
2020/12/25 09:04:35;;;;;;;17.02;12.82;;;;;;;;;;6248221;28;20087;-76
2020/12/25 09:07:36;;;;;;;17.90;13.40;;;;;;;;;;6255673;28;20041;-74
2020/12/25 09:10:37;;;;;;;19.80;15.55;;;;;;;;;;6260554;28;21986;-74
2020/12/25 09:13:40;;;;;;;21.52;15.60;;;;;;;;;;6253620;28;20041;-74
2020/12/25 09:16:41;;;;;;;19.85;15.73;;;;;;;;;;6257042;28;20114;-75
2020/12/25 09:19:43;;;;;;;18.42;14.07;;;;;;;;;;6257201;28;20452;-74
2020/12/25 09:22:44;;;;;;;19.77;14.98;;;;;;;;;;6249795;28;20056;-75
2020/12/25 09:25:45;;;;;;;17.00;13.10;;;;;;;;;;6249412;28;20598;-74
2020/12/25 09:28:47;;;;;;;18.38;12.50;;;;;;;;;;6249758;28;20094;-74
2020/12/25 09:31:48;;;;;;;19.73;13.65;;;;;;;;;;6250668;28;20053;-76
2020/12/25 09:34:49;;;;;;;15.35;10.50;;;;;;;;;;6248076;28;20037;-76
2020/12/25 09:37:50;;;;;;;10.70;7.80;;;;;;;;;;6259002;28;20171;-75
2020/12/25 09:40:52;;;;;;;11.13;8.05;;;;;;;;;;6262438;28;20496;-74
2020/12/25 09:43:54;;;;;;;10.98;8.05;;;;;;;;;;6258891;28;20253;-74
2020/12/25 09:46:55;;;;;;;8.30;6.30;;;;;;;;;;6252447;28;20066;-74
2020/12/25 09:49:56;;;;;;;7.38;4.93;;;;;;;;;;6259469;28;20385;-74
2020/12/25 09:52:57;;;;;;;4.50;3.28;;;;;;;;;;6260037;28;20064;-74
2020/12/25 09:55:58;;;;;;;2.92;1.48;;;;;;;;;;6257524;28;20037;-74
2020/12/25 09:59:00;;;;;;;2.15;1.42;;;;;;;;;;6256805;28;20045;-75
2020/12/25 10:02:01;;;;;;;1.40;0.90;;;;;;;;;;6265521;28;20048;-74
2020/12/25 10:05:02;;;;;;;3.38;1.83;;;;;;;;;;6251920;28;20182;-74
2020/12/25 10:08:03;;;;;;;1.05;0.70;;;;;;;;;;6259611;28;20216;-75
2020/12/25 10:11:04;;;;;;;0.88;0.50;;;;;;;;;;6249683;28;20124;-76
2020/12/25 10:14:06;;;;;;;0.50;0.40;;;;;;;;;;6258553;28;20049;-74
2020/12/25 10:17:07;;;;;;;1.20;0.63;;;;;;;;;;6259669;28;20072;-74
2020/12/25 10:20:08;;;;;;;0.75;0.40;;;;;;;;;;6258005;28;20045;-74
2020/12/25 10:23:09;;;;;;;2.00;0.70;;;;;;;;;;6256141;28;20187;-73
2020/12/25 10:26:10;;;;;;;1.00;0.52;;;;;;;;;;6257229;28;20497;-74
2020/12/25 10:29:12;;;;;;;1.08;0.60;;;;;;;;;;6251761;28;20076;-74
2020/12/25 10:32:13;;;;;;;0.90;0.65;;;;;;;;;;6257294;28;20639;-74
2020/12/25 10:35:14;;;;;;;1.27;0.80;;;;;;;;;;6257874;28;20083;-74
2020/12/25 10:38:15;;;;;;;1.75;0.90;;;;;;;;;;6260261;28;20037;-74
2020/12/25 10:41:16;;;;;;;0.93;0.47;;;;;;;;;;6257117;28;20194;-74
2020/12/25 10:44:18;;;;;;;0.82;0.50;;;;;;;;;;6252483;28;20041;-74
2020/12/25 10:47:19;;;;;;;2.35;0.80;;;;;;;;;;6254755;28;20546;-74
2020/12/25 10:50:20;;;;;;;6.28;1.63;;;;;;;;;;6254731;28;20036;-74
2020/12/25 10:53:21;;;;;;;1.10;0.40;;;;;;;;;;6257614;28;20037;-75
2020/12/25 10:56:23;;;;;;;1.42;0.47;;;;;;;;;;6254452;28;20056;-74
2020/12/25 10:59:25;;;;;;;0.93;0.40;;;;;;;;;;6255987;28;20098;-75
2020/12/25 11:02:26;;;;;;;2.95;0.47;;;;;;;;;;6255589;28;20049;-74
2020/12/25 11:05:27;;;;;;;0.95;0.35;;;;;;;;;;6256268;28;20135;-75
2020/12/25 11:08:30;;;;;;;2.45;0.40;;;;;;;;;;6249973;28;20648;-74
2020/12/25 11:11:32;;;;;;;0.80;0.40;;;;;;;;;;6255736;28;20041;-74
2020/12/25 11:14:34;;;;;;;2.85;0.55;;;;;;;;;;6259367;28;20041;-74
2020/12/25 11:17:35;;;;;;;1.48;0.40;;;;;;;;;;6265645;28;20681;-75
2020/12/25 11:20:36;;;;;;;0.88;0.32;;;;;;;;;;6253620;28;20060;-75
2020/12/25 11:23:37;;;;;;;1.30;0.30;;;;;;;;;;6252574;28;20189;-74
2020/12/25 11:26:38;;;;;;;0.65;0.30;;;;;;;;;;6255461;28;20045;-74
2020/12/25 11:29:40;;;;;;;1.20;0.45;;;;;;;;;;6256154;28;20044;-74
2020/12/25 11:32:41;;;;;;;1.10;0.60;;;;;;;;;;6251392;28;20094;-74
2020/12/25 11:35:42;;;;;;;0.95;0.40;;;;;;;;;;6251311;28;20535;-75
2020/12/25 11:38:44;;;;;;;0.80;0.50;;;;;;;;;;6250037;28;20110;-77
2020/12/25 11:41:45;;;;;;;1.00;0.60;;;;;;;;;;6260043;28;20098;-74
2020/12/25 11:44:47;;;;;;;1.98;0.50;;;;;;;;;;6264173;28;20049;-73
2020/12/25 11:47:48;;;;;;;0.80;0.40;;;;;;;;;;6254334;28;20074;-74
2020/12/25 11:50:49;;;;;;;2.20;0.57;;;;;;;;;;6262658;28;20124;-77
2020/12/25 11:53:50;;;;;;;2.15;0.70;;;;;;;;;;6260259;28;20075;-74
2020/12/25 11:56:52;;;;;;;1.25;0.70;;;;;;;;;;6260782;28;20042;-76
2020/12/25 11:59:54;;;;;;;0.77;0.50;;;;;;;;;;6252488;28;20424;-74
2020/12/25 12:02:55;;;;;;;1.75;0.65;;;;;;;;;;6253465;28;20557;-73
2020/12/25 12:05:56;;;;;;;1.33;0.80;;;;;;;;;;6258272;28;20075;-72
2020/12/25 12:08:57;;;;;;;1.17;0.70;;;;;;;;;;6257808;28;20065;-74
2020/12/25 12:11:58;;;;;;;0.70;0.40;;;;;;;;;;6264695;28;20484;-73
2020/12/25 12:15:00;;;;;;;5.75;2.97;;;;;;;;;;6258353;28;20047;-72
2020/12/25 12:18:01;;;;;;;1.85;0.50;;;;;;;;;;6261125;28;20048;-74
2020/12/25 12:21:02;;;;;;;2.75;0.52;;;;;;;;;;6255600;28;20055;-75
2020/12/25 12:24:03;;;;;;;1.80;0.77;;;;;;;;;;6259892;28;20053;-74
2020/12/25 12:27:05;;;;;;;0.88;0.52;;;;;;;;;;6254769;28;20064;-74
2020/12/25 12:30:08;;;;;;;2.30;0.45;;;;;;;;;;6253497;28;20064;-76
2020/12/25 12:33:09;;;;;;;0.77;0.43;;;;;;;;;;6258452;28;20077;-74
2020/12/25 12:36:10;;;;;;;1.00;0.60;;;;;;;;;;6269317;28;20531;-74
2020/12/25 12:39:11;;;;;;;0.80;0.50;;;;;;;;;;6251797;28;20088;-74
2020/12/25 12:42:12;;;;;;;2.13;0.70;;;;;;;;;;6250679;28;20046;-75
2020/12/25 12:45:14;;;;;;;1.38;0.60;;;;;;;;;;6246906;28;20533;-75
2020/12/25 12:48:15;;;;;;;1.40;0.55;;;;;;;;;;6254925;28;20439;-77
2020/12/25 12:51:16;;;;;;;0.60;0.32;;;;;;;;;;6253059;28;20040;-74
2020/12/25 12:54:17;;;;;;;0.90;0.30;;;;;;;;;;6259632;28;20056;-75
2020/12/25 12:57:18;;;;;;;0.95;0.35;;;;;;;;;;6248354;28;20503;-75
2020/12/25 13:00:20;;;;;;;2.47;0.50;;;;;;;;;;6250320;28;20057;-75
2020/12/25 13:03:21;;;;;;;1.85;0.40;;;;;;;;;;6248141;28;20049;-76
2020/12/25 13:06:22;;;;;;;1.55;0.47;;;;;;;;;;6246375;28;20059;-76
2020/12/25 13:09:23;;;;;;;0.85;0.50;;;;;;;;;;6243606;28;20049;-75
2020/12/25 13:12:24;;;;;;;0.65;0.30;;;;;;;;;;6238737;28;20500;-74
2020/12/25 13:15:26;;;;;;;0.85;0.55;;;;;;;;;;6246054;28;20053;-75
2020/12/25 13:18:27;;;;;;;0.55;0.28;;;;;;;;;;6243850;28;20061;-74
2020/12/25 13:21:29;;;;;;;0.95;0.50;;;;;;;;;;6252373;28;20056;-74
2020/12/25 13:24:30;;;;;;;0.70;0.40;;;;;;;;;;5906682;28;9999893;-77
2020/12/25 13:27:31;;;;;;;0.93;0.43;;;;;;;;;;6261805;28;20128;-75
2020/12/25 13:30:35;;;;;;;1.35;0.55;;;;;;;;;;5559784;28;10000596;-75
2020/12/25 13:33:36;;;;;;;1.20;0.60;;;;;;;;;;6261755;28;20496;-75
2020/12/25 13:36:37;;;;;;;0.98;0.47;;;;;;;;;;6254766;28;20055;-75
2020/12/25 13:39:38;;;;;;;0.68;0.30;;;;;;;;;;6258597;28;20051;-77
2020/12/25 13:42:39;;;;;;;0.98;0.60;;;;;;;;;;6268847;28;20552;-77
2020/12/25 13:45:42;;;;;;;0.82;0.45;;;;;;;;;;6249681;28;20127;-72
2020/12/25 13:48:44;;;;;;;0.93;0.55;;;;;;;;;;6258294;28;20052;-76
2020/12/25 13:51:45;;;;;;;1.13;0.45;;;;;;;;;;6251117;28;20603;-75
2020/12/25 13:54:46;;;;;;;0.73;0.40;;;;;;;;;;6258653;28;20037;-76
2020/12/25 13:57:47;;;;;;;0.77;0.30;;;;;;;;;;6266471;28;20075;-76
2020/12/25 14:00:49;;;;;;;0.50;0.30;;;;;;;;;;6251919;28;20532;-75
2020/12/25 14:03:50;;;;;;;0.70;0.40;;;;;;;;;;6256451;28;20049;-75
2020/12/25 14:06:51;;;;;;;1.55;0.50;;;;;;;;;;6255085;28;20408;-75
2020/12/25 14:09:52;;;;;;;1.60;0.50;;;;;;;;;;6262069;28;20133;-75
2020/12/25 14:12:53;;;;;;;0.98;0.50;;;;;;;;;;6252937;28;20424;-75
2020/12/25 14:15:55;;;;;;;1.02;0.60;;;;;;;;;;6261050;28;20059;-75
2020/12/25 14:18:56;;;;;;;4.00;0.70;;;;;;;;;;6262885;28;20627;-76
2020/12/25 14:21:57;;;;;;;0.88;0.52;;;;;;;;;;6267249;28;20040;-76
2020/12/25 14:24:58;;;;;;;0.90;0.60;;;;;;;;;;6258440;28;20076;-75
2020/12/25 14:27:59;;;;;;;1.73;0.50;;;;;;;;;;6267611;28;20053;-77
2020/12/25 14:31:01;;;;;;;1.38;0.77;;;;;;;;;;6262427;28;20133;-75
2020/12/25 14:34:02;;;;;;;1.58;0.70;;;;;;;;;;6256022;28;20132;-75
2020/12/25 14:37:03;;;;;;;1.75;1.17;;;;;;;;;;6261170;28;20061;-76
2020/12/25 14:40:04;;;;;;;1.30;0.77;;;;;;;;;;6245324;28;20087;-75
2020/12/25 14:43:05;;;;;;;2.50;0.90;;;;;;;;;;6265924;28;20160;-76
2020/12/25 14:46:08;;;;;;;2.22;1.27;;;;;;;;;;6266247;28;20075;-75
2020/12/25 14:49:09;;;;;;;2.20;1.00;;;;;;;;;;6259052;28;20059;-75
2020/12/25 14:52:10;;;;;;;2.80;1.63;;;;;;;;;;6254892;28;20527;-75
2020/12/25 14:55:11;;;;;;;2.13;1.17;;;;;;;;;;6263740;28;20041;-76
2020/12/25 14:58:13;;;;;;;1.38;0.70;;;;;;;;;;6249857;28;20056;-76
2020/12/25 15:01:16;;;;;;;1.50;1.10;;;;;;;;;;6257691;28;20997;-75
2020/12/25 15:04:17;;;;;;;1.50;0.80;;;;;;;;;;6263317;28;20638;-75
2020/12/25 15:07:18;;;;;;;2.50;1.10;;;;;;;;;;6265099;28;20045;-75
2020/12/25 15:10:19;;;;;;;2.03;1.00;;;;;;;;;;6265881;28;20149;-75
2020/12/25 15:13:20;;;;;;;2.00;0.93;;;;;;;;;;6269240;28;20056;-75
2020/12/25 15:16:23;;;;;;;2.15;0.98;;;;;;;;;;6267874;28;20045;-75
2020/12/25 15:19:24;;;;;;;1.92;1.30;;;;;;;;;;6261791;28;20194;-75
2020/12/25 15:22:25;;;;;;;2.08;1.40;;;;;;;;;;6263769;28;20488;-75
2020/12/25 15:25:26;;;;;;;2.10;1.40;;;;;;;;;;6258858;28;20466;-75
2020/12/25 15:28:27;;;;;;;4.57;1.40;;;;;;;;;;6257654;28;20049;-75
2020/12/25 15:31:29;;;;;;;1.83;1.40;;;;;;;;;;6263837;28;20398;-74
2020/12/25 15:34:30;;;;;;;3.42;1.45;;;;;;;;;;6256407;28;20049;-75
2020/12/25 15:37:31;;;;;;;2.08;1.40;;;;;;;;;;6256402;28;20416;-77
2020/12/25 15:40:33;;;;;;;2.28;1.40;;;;;;;;;;6261742;28;20045;-74
2020/12/25 15:43:34;;;;;;;1.83;1.30;;;;;;;;;;6254703;28;20055;-75
2020/12/25 15:46:36;;;;;;;2.17;1.50;;;;;;;;;;6262448;28;20568;-75
2020/12/25 15:49:37;;;;;;;3.03;1.70;;;;;;;;;;6262167;28;20540;-74
2020/12/25 15:52:38;;;;;;;2.47;1.65;;;;;;;;;;6259363;28;20044;-75
2020/12/25 15:55:40;;;;;;;2.38;1.40;;;;;;;;;;6258058;28;20067;-74
2020/12/25 15:58:41;;;;;;;2.97;1.30;;;;;;;;;;6263606;28;20053;-77
2020/12/25 16:01:43;;;;;;;3.00;1.77;;;;;;;;;;6256294;28;20042;-76
2020/12/25 16:04:45;;;;;;;2.05;1.60;;;;;;;;;;6255847;28;20051;-75
2020/12/25 16:07:47;;;;;;;2.95;1.60;;;;;;;;;;6251424;28;20076;-75
2020/12/25 16:10:48;;;;;;;2.67;1.50;;;;;;;;;;6254223;28;20088;-77
2020/12/25 16:13:49;;;;;;;2.25;1.55;;;;;;;;;;6255812;28;20199;-77
2020/12/25 16:16:51;;;;;;;2.22;1.40;;;;;;;;;;6261003;28;20044;-76
2020/12/25 16:19:52;;;;;;;2.58;1.45;;;;;;;;;;6261917;28;20051;-75
2020/12/25 16:22:53;;;;;;;2.30;1.42;;;;;;;;;;6259142;28;20044;-75
2020/12/25 16:25:54;;;;;;;1.77;1.30;;;;;;;;;;6234232;28;20404;-77
2020/12/25 16:28:55;;;;;;;3.78;1.80;;;;;;;;;;6230376;28;20051;-75
2020/12/25 16:31:57;;;;;;;3.55;1.60;;;;;;;;;;6235617;28;20069;-75
2020/12/25 16:34:58;;;;;;;2.30;1.48;;;;;;;;;;6231002;28;20054;-75
2020/12/25 16:38:09;;;;;;;3.14;1.81;;;;;;;;;;6216687;28;10001243;-76
2020/12/25 16:41:13;;;;;;;1.85;1.33;;;;;;;;;;6232492;28;21021;-75
2020/12/25 16:44:14;;;;;;;2.87;2.00;;;;;;;;;;6213456;28;20169;-75
2020/12/25 16:47:16;;;;;;;2.22;1.58;;;;;;;;;;6222767;28;20056;-77
2020/12/25 16:50:17;;;;;;;3.50;2.03;;;;;;;;;;6232435;28;20045;-75
2020/12/25 16:53:18;;;;;;;3.95;2.17;;;;;;;;;;6231156;28;20041;-74
2020/12/25 16:56:19;;;;;;;3.17;2.00;;;;;;;;;;6230313;28;20068;-75
2020/12/25 16:59:22;;;;;;;2.85;1.88;;;;;;;;;;6231022;28;20049;-75
2020/12/25 17:02:24;;;;;;;2.55;1.70;;;;;;;;;;6225724;28;20049;-75
2020/12/25 17:05:25;;;;;;;2.58;1.80;;;;;;;;;;6230917;28;20094;-77
2020/12/25 17:08:27;;;;;;;2.08;1.40;;;;;;;;;;6230570;28;20053;-75
2020/12/25 17:11:28;;;;;;;2.05;1.45;;;;;;;;;;6231578;28;20053;-75
2020/12/25 17:14:29;;;;;;;2.05;1.38;;;;;;;;;;6230201;28;20067;-77
2020/12/25 17:17:31;;;;;;;2.47;1.77;;;;;;;;;;6226671;28;20080;-74
2020/12/25 17:20:32;;;;;;;1.90;1.30;;;;;;;;;;6231868;28;20141;-74
2020/12/25 17:23:33;;;;;;;2.83;1.65;;;;;;;;;;6239481;28;20045;-75
2020/12/25 17:26:34;;;;;;;2.67;1.63;;;;;;;;;;6262203;28;20128;-74
2020/12/25 17:29:35;;;;;;;2.28;1.80;;;;;;;;;;6251056;28;20061;-74
2020/12/25 17:32:37;;;;;;;2.83;1.70;;;;;;;;;;6257375;28;20048;-75
2020/12/25 17:35:38;;;;;;;2.03;1.20;;;;;;;;;;6248263;28;20053;-76
2020/12/25 17:38:40;;;;;;;2.20;1.42;;;;;;;;;;6251188;28;20061;-75
2020/12/25 17:41:41;;;;;;;1.70;1.30;;;;;;;;;;6253437;28;20045;-74
2020/12/25 17:44:42;;;;;;;2.80;1.83;;;;;;;;;;5556467;28;10000159;-75
2020/12/25 17:47:44;;;;;;;2.00;1.48;;;;;;;;;;6252095;28;20124;-74
2020/12/25 17:50:45;;;;;;;2.28;1.52;;;;;;;;;;6259727;28;20136;-75